sensor_id;sensor_type;location;lat;lon;timestamp;temperature;humidity
15386;DHT22;7791;47.246;9.648;2023-09-08T00:01:58;18.60;99.90
15386;DHT22;7791;47.246;9.648;2023-09-08T00:04:25;18.50;99.90
15386;DHT22;7791;47.246;9.648;2023-09-08T00:06:51;18.40;99.90
15386;DHT22;7791;47.246;9.648;2023-09-08T00:09:16;18.40;99.90
15386;DHT22;7791;47.246;9.648;2023-09-08T00:11:42;18.40;99.90
15386;DHT22;7791;47.246;9.648;2023-09-08T00:14:08;18.40;99.90
15386;DHT22;7791;47.246;9.648;2023-09-08T00:16:33;18.40;99.90
15386;DHT22;7791;47.246;9.648;2023-09-08T00:18:59;18.40;99.90
15386;DHT22;7791;47.246;9.648;2023-09-08T00:21:26;18.50;99.90
15386;DHT22;7791;47.246;9.648;2023-09-08T00:23:52;18.50;99.90
15386;DHT22;7791;47.246;9.648;2023-09-08T00:26:18;18.50;99.90
15386;DHT22;7791;47.246;9.648;2023-09-08T00:28:44;18.40;99.90
15386;DHT22;7791;47.246;9.648;2023-09-08T00:31:09;18.30;99.90
15386;DHT22;7791;47.246;9.648;2023-09-08T00:33:35;18.30;99.90
15386;DHT22;7791;47.246;9.648;2023-09-08T00:36:00;18.40;99.90
15386;DHT22;7791;47.246;9.648;2023-09-08T00:38:28;18.40;99.90
15386;DHT22;7791;47.246;9.648;2023-09-08T00:40:53;18.30;99.90
15386;DHT22;7791;47.246;9.648;2023-09-08T00:43:19;18.20;99.90
15386;DHT22;7791;47.246;9.648;2023-09-08T00:45:45;18.20;99.90
15386;DHT22;7791;47.246;9.648;2023-09-08T00:48:11;18.20;99.90
15386;DHT22;7791;47.246;9.648;2023-09-08T00:50:38;18.10;99.90
15386;DHT22;7791;47.246;9.648;2023-09-08T00:53:05;18.10;99.90
15386;DHT22;7791;47.246;9.648;2023-09-08T00:55:32;18.20;99.90
15386;DHT22;7791;47.246;9.648;2023-09-08T00:57:59;18.20;99.90
15386;DHT22;7791;47.246;9.648;2023-09-08T01:00:25;18.20;99.90
15386;DHT22;7791;47.246;9.648;2023-09-08T01:02:51;18.20;99.90
15386;DHT22;7791;47.246;9.648;2023-09-08T01:05:17;18.30;99.90
15386;DHT22;7791;47.246;9.648;2023-09-08T01:07:44;18.30;99.90
15386;DHT22;7791;47.246;9.648;2023-09-08T01:10:10;18.20;99.90
15386;DHT22;7791;47.246;9.648;2023-09-08T01:12:37;18.10;99.90
15386;DHT22;7791;47.246;9.648;2023-09-08T01:15:03;18.10;99.90
15386;DHT22;7791;47.246;9.648;2023-09-08T01:17:29;18.10;99.90
15386;DHT22;7791;47.246;9.648;2023-09-08T01:19:56;18.10;99.90
15386;DHT22;7791;47.246;9.648;2023-09-08T01:22:35;18.10;99.90
15386;DHT22;7791;47.246;9.648;2023-09-08T01:25:13;18.10;99.90
15386;DHT22;7791;47.246;9.648;2023-09-08T01:27:45;18.10;99.90
15386;DHT22;7791;47.246;9.648;2023-09-08T01:30:11;18.00;99.90
15386;DHT22;7791;47.246;9.648;2023-09-08T01:32:38;17.90;99.90
15386;DHT22;7791;47.246;9.648;2023-09-08T01:35:05;17.90;99.90
15386;DHT22;7791;47.246;9.648;2023-09-08T01:37:30;17.90;99.90
15386;DHT22;7791;47.246;9.648;2023-09-08T01:39:56;18.00;99.90
15386;DHT22;7791;47.246;9.648;2023-09-08T01:42:23;18.00;99.90
15386;DHT22;7791;47.246;9.648;2023-09-08T01:44:49;18.00;99.90
15386;DHT22;7791;47.246;9.648;2023-09-08T01:47:15;18.00;99.90
15386;DHT22;7791;47.246;9.648;2023-09-08T01:49:41;18.00;99.90
15386;DHT22;7791;47.246;9.648;2023-09-08T01:52:07;18.00;99.90
15386;DHT22;7791;47.246;9.648;2023-09-08T01:54:32;18.00;99.90
15386;DHT22;7791;47.246;9.648;2023-09-08T01:56:58;17.90;99.90
15386;DHT22;7791;47.246;9.648;2023-09-08T01:59:25;17.80;99.90
15386;DHT22;7791;47.246;9.648;2023-09-08T02:01:51;17.70;99.90
15386;DHT22;7791;47.246;9.648;2023-09-08T02:04:16;17.70;99.90
15386;DHT22;7791;47.246;9.648;2023-09-08T02:06:42;17.50;99.90
15386;DHT22;7791;47.246;9.648;2023-09-08T02:09:08;17.50;99.90
15386;DHT22;7791;47.246;9.648;2023-09-08T02:11:33;17.50;99.90
15386;DHT22;7791;47.246;9.648;2023-09-08T02:13:59;17.50;99.90
15386;DHT22;7791;47.246;9.648;2023-09-08T02:16:26;17.60;99.90
15386;DHT22;7791;47.246;9.648;2023-09-08T02:18:52;17.60;99.90
15386;DHT22;7791;47.246;9.648;2023-09-08T02:21:17;17.70;99.90
15386;DHT22;7791;47.246;9.648;2023-09-08T02:23:43;17.60;99.90
15386;DHT22;7791;47.246;9.648;2023-09-08T02:26:09;17.60;99.90
15386;DHT22;7791;47.246;9.648;2023-09-08T02:28:34;17.60;99.90
15386;DHT22;7791;47.246;9.648;2023-09-08T02:31:00;17.50;99.90
15386;DHT22;7791;47.246;9.648;2023-09-08T02:33:27;17.50;99.90
15386;DHT22;7791;47.246;9.648;2023-09-08T02:35:53;17.40;99.90
15386;DHT22;7791;47.246;9.648;2023-09-08T02:38:19;17.40;99.90
15386;DHT22;7791;47.246;9.648;2023-09-08T02:40:44;17.30;99.90
15386;DHT22;7791;47.246;9.648;2023-09-08T02:43:10;17.30;99.90
15386;DHT22;7791;47.246;9.648;2023-09-08T02:45:36;17.30;99.90
15386;DHT22;7791;47.246;9.648;2023-09-08T02:48:02;17.20;99.90
15386;DHT22;7791;47.246;9.648;2023-09-08T02:50:29;17.20;99.90
15386;DHT22;7791;47.246;9.648;2023-09-08T02:52:54;17.20;99.90
15386;DHT22;7791;47.246;9.648;2023-09-08T02:55:20;17.20;99.90
15386;DHT22;7791;47.246;9.648;2023-09-08T02:57:46;17.20;99.90
15386;DHT22;7791;47.246;9.648;2023-09-08T03:00:12;17.20;99.90
15386;DHT22;7791;47.246;9.648;2023-09-08T03:02:38;17.30;99.90
15386;DHT22;7791;47.246;9.648;2023-09-08T03:05:04;17.30;99.90
15386;DHT22;7791;47.246;9.648;2023-09-08T03:07:31;17.40;99.90
15386;DHT22;7791;47.246;9.648;2023-09-08T03:09:57;17.40;99.90
15386;DHT22;7791;47.246;9.648;2023-09-08T03:12:22;17.40;99.90
15386;DHT22;7791;47.246;9.648;2023-09-08T03:14:48;17.40;99.90
15386;DHT22;7791;47.246;9.648;2023-09-08T03:17:14;17.20;99.90
15386;DHT22;7791;47.246;9.648;2023-09-08T03:19:39;17.20;99.90
15386;DHT22;7791;47.246;9.648;2023-09-08T03:22:05;17.20;99.90
15386;DHT22;7791;47.246;9.648;2023-09-08T03:24:32;17.20;99.90
15386;DHT22;7791;47.246;9.648;2023-09-08T03:26:58;17.10;99.90
15386;DHT22;7791;47.246;9.648;2023-09-08T03:29:23;17.10;99.90
15386;DHT22;7791;47.246;9.648;2023-09-08T03:31:49;17.10;99.90
15386;DHT22;7791;47.246;9.648;2023-09-08T03:34:15;17.00;99.90
15386;DHT22;7791;47.246;9.648;2023-09-08T03:36:40;17.00;99.90
15386;DHT22;7791;47.246;9.648;2023-09-08T03:39:06;16.80;99.90
15386;DHT22;7791;47.246;9.648;2023-09-08T03:41:33;16.70;99.90
15386;DHT22;7791;47.246;9.648;2023-09-08T03:43:59;16.80;99.90
15386;DHT22;7791;47.246;9.648;2023-09-08T03:46:24;16.80;99.90
15386;DHT22;7791;47.246;9.648;2023-09-08T03:48:50;16.90;99.90
15386;DHT22;7791;47.246;9.648;2023-09-08T03:51:16;16.90;99.90
15386;DHT22;7791;47.246;9.648;2023-09-08T03:53:41;16.90;99.90
15386;DHT22;7791;47.246;9.648;2023-09-08T03:56:07;17.00;99.90
15386;DHT22;7791;47.246;9.648;2023-09-08T03:58:34;17.00;99.90
15386;DHT22;7791;47.246;9.648;2023-09-08T04:01:00;17.00;99.90
15386;DHT22;7791;47.246;9.648;2023-09-08T04:03:25;17.00;99.90
15386;DHT22;7791;47.246;9.648;2023-09-08T04:05:51;17.00;99.90
15386;DHT22;7791;47.246;9.648;2023-09-08T04:08:17;17.00;99.90
15386;DHT22;7791;47.246;9.648;2023-09-08T04:10:42;16.90;99.90
15386;DHT22;7791;47.246;9.648;2023-09-08T04:13:08;16.70;99.90
15386;DHT22;7791;47.246;9.648;2023-09-08T04:15:35;16.60;99.90
15386;DHT22;7791;47.246;9.648;2023-09-08T04:26:23;16.60;99.90
15386;DHT22;7791;47.246;9.648;2023-09-08T04:32:10;16.60;99.90
15386;DHT22;7791;47.246;9.648;2023-09-08T04:34:46;16.70;99.90
15386;DHT22;7791;47.246;9.648;2023-09-08T04:37:31;16.70;99.90
15386;DHT22;7791;47.246;9.648;2023-09-08T04:40:01;16.70;99.90
15386;DHT22;7791;47.246;9.648;2023-09-08T04:42:59;16.70;99.90
15386;DHT22;7791;47.246;9.648;2023-09-08T04:45:35;16.70;99.90
15386;DHT22;7791;47.246;9.648;2023-09-08T04:48:21;16.70;99.90
15386;DHT22;7791;47.246;9.648;2023-09-08T04:51:09;16.80;99.90
15386;DHT22;7791;47.246;9.648;2023-09-08T04:56:32;16.70;99.90
15386;DHT22;7791;47.246;9.648;2023-09-08T04:58:57;16.70;99.90
15386;DHT22;7791;47.246;9.648;2023-09-08T05:01:23;16.60;99.90
15386;DHT22;7791;47.246;9.648;2023-09-08T05:03:50;16.70;99.90
15386;DHT22;7791;47.246;9.648;2023-09-08T05:06:16;16.70;99.90
15386;DHT22;7791;47.246;9.648;2023-09-08T05:08:41;16.70;99.90
15386;DHT22;7791;47.246;9.648;2023-09-08T05:11:07;16.80;99.90
15386;DHT22;7791;47.246;9.648;2023-09-08T05:13:33;16.80;99.90
15386;DHT22;7791;47.246;9.648;2023-09-08T05:15:58;16.80;99.90
15386;DHT22;7791;47.246;9.648;2023-09-08T05:18:24;16.90;99.90
15386;DHT22;7791;47.246;9.648;2023-09-08T05:20:51;16.90;99.90
15386;DHT22;7791;47.246;9.648;2023-09-08T05:23:17;17.00;99.90
15386;DHT22;7791;47.246;9.648;2023-09-08T05:25:42;17.00;99.90
15386;DHT22;7791;47.246;9.648;2023-09-08T05:28:08;17.10;99.90
15386;DHT22;7791;47.246;9.648;2023-09-08T05:30:34;17.10;99.90
15386;DHT22;7791;47.246;9.648;2023-09-08T05:33:00;17.10;99.90
15386;DHT22;7791;47.246;9.648;2023-09-08T05:35:25;17.20;99.90
15386;DHT22;7791;47.246;9.648;2023-09-08T05:37:52;17.10;99.90
15386;DHT22;7791;47.246;9.648;2023-09-08T05:40:18;17.10;99.90
15386;DHT22;7791;47.246;9.648;2023-09-08T05:42:43;17.20;99.90
15386;DHT22;7791;47.246;9.648;2023-09-08T05:45:10;17.30;99.90
15386;DHT22;7791;47.246;9.648;2023-09-08T05:47:36;17.40;99.90
15386;DHT22;7791;47.246;9.648;2023-09-08T05:50:01;17.30;99.90
15386;DHT22;7791;47.246;9.648;2023-09-08T05:52:27;17.10;99.90
15386;DHT22;7791;47.246;9.648;2023-09-08T05:54:54;17.20;99.90
15386;DHT22;7791;47.246;9.648;2023-09-08T05:57:20;17.30;99.90
15386;DHT22;7791;47.246;9.648;2023-09-08T05:59:45;17.40;99.90
15386;DHT22;7791;47.246;9.648;2023-09-08T06:02:11;17.40;99.90
15386;DHT22;7791;47.246;9.648;2023-09-08T06:04:36;17.50;99.90
15386;DHT22;7791;47.246;9.648;2023-09-08T06:07:02;17.60;99.90
15386;DHT22;7791;47.246;9.648;2023-09-08T06:09:28;17.60;99.90
15386;DHT22;7791;47.246;9.648;2023-09-08T06:11:55;17.80;99.90
15386;DHT22;7791;47.246;9.648;2023-09-08T06:14:21;18.00;99.90
15386;DHT22;7791;47.246;9.648;2023-09-08T06:16:47;18.10;99.90
15386;DHT22;7791;47.246;9.648;2023-09-08T06:19:12;18.20;99.90
15386;DHT22;7791;47.246;9.648;2023-09-08T06:21:38;18.40;99.90
15386;DHT22;7791;47.246;9.648;2023-09-08T06:24:04;18.50;99.90
15386;DHT22;7791;47.246;9.648;2023-09-08T06:26:30;18.50;99.90
15386;DHT22;7791;47.246;9.648;2023-09-08T06:28:57;18.60;99.90
15386;DHT22;7791;47.246;9.648;2023-09-08T06:31:23;18.30;99.90
15386;DHT22;7791;47.246;9.648;2023-09-08T06:33:48;18.40;99.90
15386;DHT22;7791;47.246;9.648;2023-09-08T06:36:14;18.60;99.90
15386;DHT22;7791;47.246;9.648;2023-09-08T06:38:40;18.90;99.90
15386;DHT22;7791;47.246;9.648;2023-09-08T06:41:09;19.10;99.90
15386;DHT22;7791;47.246;9.648;2023-09-08T06:43:35;19.20;99.90
15386;DHT22;7791;47.246;9.648;2023-09-08T06:46:02;19.80;99.90
15386;DHT22;7791;47.246;9.648;2023-09-08T06:48:29;21.20;99.90
15386;DHT22;7791;47.246;9.648;2023-09-08T06:50:54;22.70;99.90
15386;DHT22;7791;47.246;9.648;2023-09-08T06:53:20;24.10;99.90
15386;DHT22;7791;47.246;9.648;2023-09-08T06:55:46;25.20;99.90
15386;DHT22;7791;47.246;9.648;2023-09-08T06:58:11;26.30;99.90
15386;DHT22;7791;47.246;9.648;2023-09-08T07:00:37;27.10;99.90
15386;DHT22;7791;47.246;9.648;2023-09-08T07:03:04;28.00;99.90
15386;DHT22;7791;47.246;9.648;2023-09-08T07:05:30;28.60;99.90
15386;DHT22;7791;47.246;9.648;2023-09-08T07:07:56;29.10;99.90
15386;DHT22;7791;47.246;9.648;2023-09-08T07:10:21;29.60;99.90
15386;DHT22;7791;47.246;9.648;2023-09-08T07:12:47;30.20;99.90
15386;DHT22;7791;47.246;9.648;2023-09-08T07:15:13;30.60;99.90
15386;DHT22;7791;47.246;9.648;2023-09-08T07:17:38;31.10;99.90
15386;DHT22;7791;47.246;9.648;2023-09-08T07:20:07;31.40;99.90
15386;DHT22;7791;47.246;9.648;2023-09-08T07:22:33;31.20;99.90
15386;DHT22;7791;47.246;9.648;2023-09-08T07:24:59;31.20;99.90
15386;DHT22;7791;47.246;9.648;2023-09-08T07:27:25;31.50;99.90
15386;DHT22;7791;47.246;9.648;2023-09-08T07:29:50;31.70;99.90
15386;DHT22;7791;47.246;9.648;2023-09-08T07:32:16;31.70;99.90
15386;DHT22;7791;47.246;9.648;2023-09-08T07:34:42;31.90;99.90
15386;DHT22;7791;47.246;9.648;2023-09-08T07:37:09;32.10;99.90
15386;DHT22;7791;47.246;9.648;2023-09-08T07:39:35;32.60;99.90
15386;DHT22;7791;47.246;9.648;2023-09-08T07:42:01;32.00;99.90
15386;DHT22;7791;47.246;9.648;2023-09-08T07:44:27;32.90;99.90
15386;DHT22;7791;47.246;9.648;2023-09-08T07:46:52;33.80;99.90
15386;DHT22;7791;47.246;9.648;2023-09-08T07:49:18;34.50;99.90
15386;DHT22;7791;47.246;9.648;2023-09-08T07:51:44;34.60;99.90
15386;DHT22;7791;47.246;9.648;2023-09-08T07:54:11;34.60;99.90
15386;DHT22;7791;47.246;9.648;2023-09-08T07:56:37;34.80;99.40
15386;DHT22;7791;47.246;9.648;2023-09-08T07:59:02;35.20;99.00
15386;DHT22;7791;47.246;9.648;2023-09-08T08:01:28;35.20;98.70
15386;DHT22;7791;47.246;9.648;2023-09-08T08:03:54;35.30;98.20
15386;DHT22;7791;47.246;9.648;2023-09-08T08:06:19;35.30;98.00
15386;DHT22;7791;47.246;9.648;2023-09-08T08:09:10;35.70;97.50
15386;DHT22;7791;47.246;9.648;2023-09-08T08:11:36;35.80;96.40
15386;DHT22;7791;47.246;9.648;2023-09-08T08:14:02;35.40;96.10
15386;DHT22;7791;47.246;9.648;2023-09-08T08:16:27;35.20;96.70
15386;DHT22;7791;47.246;9.648;2023-09-08T08:18:53;35.70;95.90
15386;DHT22;7791;47.246;9.648;2023-09-08T08:21:19;35.80;95.90
15386;DHT22;7791;47.246;9.648;2023-09-08T08:23:44;35.70;96.20
15386;DHT22;7791;47.246;9.648;2023-09-08T08:26:12;35.80;96.40
15386;DHT22;7791;47.246;9.648;2023-09-08T08:28:37;34.60;97.00
15386;DHT22;7791;47.246;9.648;2023-09-08T08:31:03;34.00;97.80
15386;DHT22;7791;47.246;9.648;2023-09-08T08:33:29;33.20;98.00
15386;DHT22;7791;47.246;9.648;2023-09-08T08:35:54;32.60;99.20
15386;DHT22;7791;47.246;9.648;2023-09-08T08:38:20;32.50;99.40
15386;DHT22;7791;47.246;9.648;2023-09-08T08:40:46;32.70;99.20
15386;DHT22;7791;47.246;9.648;2023-09-08T08:43:13;32.50;99.70
15386;DHT22;7791;47.246;9.648;2023-09-08T08:45:41;31.80;99.90
15386;DHT22;7791;47.246;9.648;2023-09-08T08:48:07;32.60;99.90
15386;DHT22;7791;47.246;9.648;2023-09-08T08:50:34;32.20;99.90
15386;DHT22;7791;47.246;9.648;2023-09-08T08:53:00;31.90;99.90
15386;DHT22;7791;47.246;9.648;2023-09-08T08:55:27;31.50;99.90
15386;DHT22;7791;47.246;9.648;2023-09-08T08:57:54;31.60;99.90
15386;DHT22;7791;47.246;9.648;2023-09-08T09:00:22;32.40;99.60
15386;DHT22;7791;47.246;9.648;2023-09-08T09:02:48;32.10;99.90
15386;DHT22;7791;47.246;9.648;2023-09-08T09:05:14;31.70;99.90
15386;DHT22;7791;47.246;9.648;2023-09-08T09:07:40;31.30;99.90
15386;DHT22;7791;47.246;9.648;2023-09-08T09:10:07;30.70;99.90
15386;DHT22;7791;47.246;9.648;2023-09-08T09:12:33;29.90;99.90
15386;DHT22;7791;47.246;9.648;2023-09-08T09:14:59;30.00;99.90
15386;DHT22;7791;47.246;9.648;2023-09-08T09:17:26;30.20;99.90
15386;DHT22;7791;47.246;9.648;2023-09-08T09:20:12;30.40;99.90
15386;DHT22;7791;47.246;9.648;2023-09-08T09:22:37;30.50;99.90
15386;DHT22;7791;47.246;9.648;2023-09-08T09:25:03;30.70;99.90
15386;DHT22;7791;47.246;9.648;2023-09-08T09:27:31;30.60;99.90
15386;DHT22;7791;47.246;9.648;2023-09-08T09:30:07;30.40;99.90
15386;DHT22;7791;47.246;9.648;2023-09-08T09:32:35;30.00;99.90
15386;DHT22;7791;47.246;9.648;2023-09-08T09:35:00;30.00;99.90
15386;DHT22;7791;47.246;9.648;2023-09-08T09:37:26;30.30;99.90
15386;DHT22;7791;47.246;9.648;2023-09-08T09:39:53;30.60;99.90
15386;DHT22;7791;47.246;9.648;2023-09-08T09:42:19;30.50;99.90
15386;DHT22;7791;47.246;9.648;2023-09-08T09:44:47;30.80;99.90
15386;DHT22;7791;47.246;9.648;2023-09-08T09:47:13;31.00;99.90
15386;DHT22;7791;47.246;9.648;2023-09-08T09:49:43;31.40;99.90
15386;DHT22;7791;47.246;9.648;2023-09-08T09:52:11;31.60;99.90
15386;DHT22;7791;47.246;9.648;2023-09-08T09:54:37;31.00;99.90
15386;DHT22;7791;47.246;9.648;2023-09-08T09:57:03;31.00;99.90
15386;DHT22;7791;47.246;9.648;2023-09-08T09:59:29;31.00;99.90
15386;DHT22;7791;47.246;9.648;2023-09-08T10:01:55;31.20;99.90
15386;DHT22;7791;47.246;9.648;2023-09-08T10:04:21;31.50;99.90
15386;DHT22;7791;47.246;9.648;2023-09-08T10:06:48;31.30;99.90
15386;DHT22;7791;47.246;9.648;2023-09-08T10:09:15;31.10;99.90
15386;DHT22;7791;47.246;9.648;2023-09-08T10:11:42;31.20;99.90
15386;DHT22;7791;47.246;9.648;2023-09-08T10:14:10;31.10;99.90
15386;DHT22;7791;47.246;9.648;2023-09-08T10:16:38;31.10;99.90
15386;DHT22;7791;47.246;9.648;2023-09-08T10:19:08;31.40;99.90
15386;DHT22;7791;47.246;9.648;2023-09-08T10:21:36;31.70;99.90
15386;DHT22;7791;47.246;9.648;2023-09-08T10:24:13;32.20;99.60
15386;DHT22;7791;47.246;9.648;2023-09-08T10:26:43;32.20;99.10
15386;DHT22;7791;47.246;9.648;2023-09-08T10:29:10;32.30;99.80
15386;DHT22;7791;47.246;9.648;2023-09-08T10:31:37;32.30;99.50
15386;DHT22;7791;47.246;9.648;2023-09-08T10:34:03;31.90;99.50
15386;DHT22;7791;47.246;9.648;2023-09-08T10:36:30;32.30;99.90
15386;DHT22;7791;47.246;9.648;2023-09-08T10:39:27;32.60;99.80
15386;DHT22;7791;47.246;9.648;2023-09-08T10:42:22;33.10;98.20
15386;DHT22;7791;47.246;9.648;2023-09-08T10:45:01;33.10;98.50
15386;DHT22;7791;47.246;9.648;2023-09-08T10:47:31;32.60;98.90
15386;DHT22;7791;47.246;9.648;2023-09-08T10:49:59;32.60;98.90
15386;DHT22;7791;47.246;9.648;2023-09-08T10:52:25;33.50;99.10
15386;DHT22;7791;47.246;9.648;2023-09-08T10:54:53;33.40;97.00
15386;DHT22;7791;47.246;9.648;2023-09-08T10:57:21;33.60;97.90
15386;DHT22;7791;47.246;9.648;2023-09-08T10:59:51;33.80;97.90
15386;DHT22;7791;47.246;9.648;2023-09-08T11:02:33;33.80;98.20
15386;DHT22;7791;47.246;9.648;2023-09-08T11:05:00;33.70;97.70
15386;DHT22;7791;47.246;9.648;2023-09-08T11:07:41;33.70;98.30
15386;DHT22;7791;47.246;9.648;2023-09-08T11:10:10;33.30;98.90
15386;DHT22;7791;47.246;9.648;2023-09-08T11:12:36;33.10;99.10
15386;DHT22;7791;47.246;9.648;2023-09-08T11:15:03;33.00;99.00
15386;DHT22;7791;47.246;9.648;2023-09-08T11:17:31;33.80;97.40
15386;DHT22;7791;47.246;9.648;2023-09-08T11:19:59;34.00;98.10
15386;DHT22;7791;47.246;9.648;2023-09-08T11:22:25;33.60;98.40
15386;DHT22;7791;47.246;9.648;2023-09-08T11:24:51;34.60;97.10
15386;DHT22;7791;47.246;9.648;2023-09-08T11:27:19;34.60;97.00
15386;DHT22;7791;47.246;9.648;2023-09-08T11:29:45;34.50;98.00
15386;DHT22;7791;47.246;9.648;2023-09-08T11:32:11;34.60;97.70
15386;DHT22;7791;47.246;9.648;2023-09-08T11:34:36;34.20;97.80
15386;DHT22;7791;47.246;9.648;2023-09-08T11:37:07;34.00;97.80
15386;DHT22;7791;47.246;9.648;2023-09-08T11:39:37;34.00;97.40
15386;DHT22;7791;47.246;9.648;2023-09-08T11:42:05;34.50;97.50
15386;DHT22;7791;47.246;9.648;2023-09-08T11:44:35;34.60;97.60
15386;DHT22;7791;47.246;9.648;2023-09-08T11:47:03;35.30;96.90
15386;DHT22;7791;47.246;9.648;2023-09-08T11:49:34;35.10;96.00
15386;DHT22;7791;47.246;9.648;2023-09-08T11:52:00;35.40;96.10
15386;DHT22;7791;47.246;9.648;2023-09-08T11:54:26;35.20;96.20
15386;DHT22;7791;47.246;9.648;2023-09-08T11:56:52;34.60;95.90
15386;DHT22;7791;47.246;9.648;2023-09-08T11:59:18;34.60;96.50
15386;DHT22;7791;47.246;9.648;2023-09-08T12:01:45;34.30;96.10
15386;DHT22;7791;47.246;9.648;2023-09-08T12:04:17;34.10;96.00
15386;DHT22;7791;47.246;9.648;2023-09-08T12:06:43;34.00;96.20
15386;DHT22;7791;47.246;9.648;2023-09-08T12:09:08;33.50;96.90
15386;DHT22;7791;47.246;9.648;2023-09-08T12:11:34;32.80;96.90
15386;DHT22;7791;47.246;9.648;2023-09-08T12:14:00;32.90;97.30
15386;DHT22;7791;47.246;9.648;2023-09-08T12:16:26;33.00;97.70
15386;DHT22;7791;47.246;9.648;2023-09-08T12:18:53;32.90;97.10
15386;DHT22;7791;47.246;9.648;2023-09-08T12:21:19;33.40;96.70
15386;DHT22;7791;47.246;9.648;2023-09-08T12:23:48;34.10;97.00
15386;DHT22;7791;47.246;9.648;2023-09-08T12:26:14;34.40;96.10
15386;DHT22;7791;47.246;9.648;2023-09-08T12:28:40;34.30;96.00
15386;DHT22;7791;47.246;9.648;2023-09-08T12:31:07;34.50;96.20
15386;DHT22;7791;47.246;9.648;2023-09-08T12:33:34;35.10;96.20
15386;DHT22;7791;47.246;9.648;2023-09-08T12:36:10;35.30;95.90
15386;DHT22;7791;47.246;9.648;2023-09-08T12:38:36;35.00;96.10
15386;DHT22;7791;47.246;9.648;2023-09-08T12:41:02;35.20;96.30
15386;DHT22;7791;47.246;9.648;2023-09-08T12:43:28;35.30;95.30
15386;DHT22;7791;47.246;9.648;2023-09-08T12:45:53;35.20;95.80
15386;DHT22;7791;47.246;9.648;2023-09-08T12:48:19;35.30;95.80
15386;DHT22;7791;47.246;9.648;2023-09-08T12:50:45;35.20;94.40
15386;DHT22;7791;47.246;9.648;2023-09-08T12:53:13;35.20;95.40
15386;DHT22;7791;47.246;9.648;2023-09-08T12:55:39;34.30;94.60
15386;DHT22;7791;47.246;9.648;2023-09-08T12:58:05;34.00;95.80
15386;DHT22;7791;47.246;9.648;2023-09-08T13:00:31;34.30;96.10
15386;DHT22;7791;47.246;9.648;2023-09-08T13:02:59;34.10;95.80
15386;DHT22;7791;47.246;9.648;2023-09-08T13:05:25;33.90;96.30
15386;DHT22;7791;47.246;9.648;2023-09-08T13:07:55;33.70;96.90
15386;DHT22;7791;47.246;9.648;2023-09-08T13:10:23;33.60;97.30
15386;DHT22;7791;47.246;9.648;2023-09-08T13:12:48;33.80;95.80
15386;DHT22;7791;47.246;9.648;2023-09-08T13:15:15;33.00;96.90
15386;DHT22;7791;47.246;9.648;2023-09-08T13:17:41;33.00;97.10
15386;DHT22;7791;47.246;9.648;2023-09-08T13:20:07;32.80;98.00
15386;DHT22;7791;47.246;9.648;2023-09-08T13:22:33;32.80;98.10
15386;DHT22;7791;47.246;9.648;2023-09-08T13:24:59;33.10;98.10
15386;DHT22;7791;47.246;9.648;2023-09-08T13:27:26;33.30;97.00
15386;DHT22;7791;47.246;9.648;2023-09-08T13:29:53;33.70;97.20
15386;DHT22;7791;47.246;9.648;2023-09-08T13:32:19;33.30;96.80
15386;DHT22;7791;47.246;9.648;2023-09-08T13:34:45;33.10;96.90
15386;DHT22;7791;47.246;9.648;2023-09-08T13:37:10;32.90;96.80
15386;DHT22;7791;47.246;9.648;2023-09-08T13:39:36;33.30;96.90
15386;DHT22;7791;47.246;9.648;2023-09-08T13:42:02;33.50;96.60
15386;DHT22;7791;47.246;9.648;2023-09-08T13:44:30;33.30;96.70
15386;DHT22;7791;47.246;9.648;2023-09-08T13:46:55;32.80;96.60
15386;DHT22;7791;47.246;9.648;2023-09-08T13:49:21;32.40;97.80
15386;DHT22;7791;47.246;9.648;2023-09-08T13:51:49;32.60;98.20
15386;DHT22;7791;47.246;9.648;2023-09-08T13:54:14;33.00;97.10
15386;DHT22;7791;47.246;9.648;2023-09-08T13:56:41;32.80;96.70
15386;DHT22;7791;47.246;9.648;2023-09-08T13:59:07;33.20;96.90
15386;DHT22;7791;47.246;9.648;2023-09-08T14:01:36;33.00;96.20
15386;DHT22;7791;47.246;9.648;2023-09-08T14:04:02;32.50;96.60
15386;DHT22;7791;47.246;9.648;2023-09-08T14:06:28;32.10;97.00
15386;DHT22;7791;47.246;9.648;2023-09-08T14:08:54;32.20;97.30
15386;DHT22;7791;47.246;9.648;2023-09-08T14:11:21;32.40;97.40
15386;DHT22;7791;47.246;9.648;2023-09-08T14:13:47;32.20;96.50
15386;DHT22;7791;47.246;9.648;2023-09-08T14:16:13;32.10;97.60
15386;DHT22;7791;47.246;9.648;2023-09-08T14:18:40;32.00;97.10
15386;DHT22;7791;47.246;9.648;2023-09-08T14:21:06;31.70;97.20
15386;DHT22;7791;47.246;9.648;2023-09-08T14:23:32;31.80;97.30
15386;DHT22;7791;47.246;9.648;2023-09-08T14:25:58;31.80;97.60
15386;DHT22;7791;47.246;9.648;2023-09-08T14:28:24;31.60;97.10
15386;DHT22;7791;47.246;9.648;2023-09-08T14:30:50;31.40;96.70
15386;DHT22;7791;47.246;9.648;2023-09-08T14:33:15;30.90;97.10
15386;DHT22;7791;47.246;9.648;2023-09-08T14:35:43;30.90;97.70
15386;DHT22;7791;47.246;9.648;2023-09-08T14:38:09;30.90;98.20
15386;DHT22;7791;47.246;9.648;2023-09-08T14:40:34;31.20;98.10
15386;DHT22;7791;47.246;9.648;2023-09-08T14:43:00;31.40;96.90
15386;DHT22;7791;47.246;9.648;2023-09-08T14:45:26;31.50;96.40
15386;DHT22;7791;47.246;9.648;2023-09-08T14:47:51;31.40;96.80
15386;DHT22;7791;47.246;9.648;2023-09-08T14:50:17;31.30;97.70
15386;DHT22;7791;47.246;9.648;2023-09-08T14:52:44;31.50;97.00
15386;DHT22;7791;47.246;9.648;2023-09-08T14:55:10;31.20;96.50
15386;DHT22;7791;47.246;9.648;2023-09-08T14:57:36;30.80;96.90
15386;DHT22;7791;47.246;9.648;2023-09-08T15:00:03;31.00;97.40
15386;DHT22;7791;47.246;9.648;2023-09-08T15:02:28;31.20;97.00
15386;DHT22;7791;47.246;9.648;2023-09-08T15:04:54;31.30;96.00
15386;DHT22;7791;47.246;9.648;2023-09-08T15:07:20;31.30;96.30
15386;DHT22;7791;47.246;9.648;2023-09-08T15:09:47;31.20;96.90
15386;DHT22;7791;47.246;9.648;2023-09-08T15:12:15;31.10;96.30
15386;DHT22;7791;47.246;9.648;2023-09-08T15:14:41;30.90;97.20
15386;DHT22;7791;47.246;9.648;2023-09-08T15:17:07;30.90;96.90
15386;DHT22;7791;47.246;9.648;2023-09-08T15:19:32;30.60;96.80
15386;DHT22;7791;47.246;9.648;2023-09-08T15:21:58;30.60;97.30
15386;DHT22;7791;47.246;9.648;2023-09-08T15:24:24;30.40;97.10
15386;DHT22;7791;47.246;9.648;2023-09-08T15:26:51;30.10;97.60
15386;DHT22;7791;47.246;9.648;2023-09-08T15:29:17;29.80;97.70
15386;DHT22;7791;47.246;9.648;2023-09-08T15:31:43;29.40;98.00
15386;DHT22;7791;47.246;9.648;2023-09-08T15:34:08;29.10;98.60
15386;DHT22;7791;47.246;9.648;2023-09-08T15:36:34;29.00;98.40
15386;DHT22;7791;47.246;9.648;2023-09-08T15:39:00;28.90;98.90
15386;DHT22;7791;47.246;9.648;2023-09-08T15:41:25;28.80;99.10
15386;DHT22;7791;47.246;9.648;2023-09-08T15:43:53;28.80;99.50
15386;DHT22;7791;47.246;9.648;2023-09-08T15:46:19;28.70;99.90
15386;DHT22;7791;47.246;9.648;2023-09-08T15:48:45;28.70;99.50
15386;DHT22;7791;47.246;9.648;2023-09-08T15:51:10;28.60;99.70
15386;DHT22;7791;47.246;9.648;2023-09-08T15:53:37;28.50;99.90
15386;DHT22;7791;47.246;9.648;2023-09-08T15:56:03;28.50;99.60
15386;DHT22;7791;47.246;9.648;2023-09-08T15:58:28;28.50;99.70